Time;durP1;ratioP1;P1;durP2;ratioP2;P2;SDS_P1;SDS_P2;PMS_P1;PMS_P2;Temp;Humidity;BMP_temperature;BMP_pressure;BME280_temperature;BME280_humidity;BME280_pressure;Samples;Min_cycle;Max_cycle;Signal;HPM_P1;HPM_P2
2023/05/28 00:02:08;;;;;;;15.48;9.27;;;16.00;99.90;;;;;;5075780;28;20039;-80
2023/05/28 00:04:33;;;;;;;15.63;8.65;;;16.00;99.90;;;;;;5075789;28;20086;-80
2023/05/28 00:06:59;;;;;;;11.98;8.63;;;15.90;99.90;;;;;;5074881;28;20028;-80
2023/05/28 00:09:25;;;;;;;12.88;8.38;;;15.90;99.90;;;;;;5075797;28;20105;-79
2023/05/28 00:11:51;;;;;;;14.68;9.60;;;15.90;99.90;;;;;;5075600;28;20040;-79
2023/05/28 00:14:17;;;;;;;19.08;8.52;;;15.90;99.90;;;;;;5075385;28;20045;-79
2023/05/28 00:16:44;;;;;;;14.65;8.55;;;15.90;99.90;;;;;;5075719;28;20037;-79
2023/05/28 00:19:10;;;;;;;17.27;9.15;;;15.90;99.90;;;;;;5075106;28;20387;-79
2023/05/28 00:21:36;;;;;;;14.45;9.57;;;15.80;99.90;;;;;;5075157;28;20090;-79
2023/05/28 00:24:03;;;;;;;14.55;9.25;;;15.80;99.90;;;;;;5073365;28;20517;-79
2023/05/28 00:26:29;;;;;;;17.73;9.15;;;15.80;99.90;;;;;;5073415;28;20037;-79
2023/05/28 00:28:55;;;;;;;14.35;9.25;;;15.80;99.90;;;;;;5074874;28;20025;-79
2023/05/28 00:31:21;;;;;;;17.63;9.40;;;15.80;99.90;;;;;;5074591;28;20024;-79
2023/05/28 00:33:47;;;;;;;17.98;9.93;;;15.80;99.90;;;;;;5074737;28;20046;-80
2023/05/28 00:36:13;;;;;;;21.38;10.90;;;15.70;99.90;;;;;;5073361;28;20028;-79
2023/05/28 00:38:39;;;;;;;18.63;9.73;;;15.70;99.90;;;;;;5074778;28;20107;-80
2023/05/28 00:41:05;;;;;;;15.38;9.07;;;15.70;99.90;;;;;;5073592;28;20024;-79
2023/05/28 00:43:31;;;;;;;14.63;10.07;;;15.70;99.90;;;;;;5074847;28;20120;-79
2023/05/28 00:46:00;;;;;;;15.07;9.98;;;15.70;99.90;;;;;;5074296;28;20037;-79
2023/05/28 00:48:26;;;;;;;17.13;11.45;;;15.70;99.90;;;;;;5073411;28;20062;-79
2023/05/28 00:50:54;;;;;;;18.38;10.70;;;15.70;99.90;;;;;;5074195;28;20063;-79
2023/05/28 00:53:19;;;;;;;16.85;10.60;;;15.70;99.90;;;;;;5074193;28;20070;-79
2023/05/28 00:55:47;;;;;;;15.63;9.70;;;15.70;99.90;;;;;;5074445;28;20036;-79
2023/05/28 00:58:15;;;;;;;15.65;10.32;;;15.80;99.90;;;;;;5074752;28;20524;-79
2023/05/28 01:00:45;;;;;;;23.73;10.18;;;15.70;99.90;;;;;;5072731;28;20479;-79
2023/05/28 01:03:11;;;;;;;17.35;10.02;;;15.80;99.90;;;;;;5073119;28;20025;-79
2023/05/28 01:05:37;;;;;;;27.30;11.00;;;15.70;99.90;;;;;;5073804;28;20062;-79
2023/05/28 01:08:04;;;;;;;13.43;9.38;;;15.80;99.90;;;;;;5074072;28;20425;-79
2023/05/28 01:10:31;;;;;;;16.35;10.38;;;15.70;99.90;;;;;;5074549;28;20458;-79
2023/05/28 01:13:00;;;;;;;18.35;10.73;;;15.70;99.90;;;;;;5072614;28;20032;-80
2023/05/28 01:15:26;;;;;;;17.60;10.10;;;15.70;99.90;;;;;;5073862;28;20403;-79
2023/05/28 01:18:00;;;;;;;19.77;10.63;;;15.70;99.90;;;;;;5072717;28;20491;-79
2023/05/28 01:20:30;;;;;;;18.38;10.30;;;15.70;99.90;;;;;;5073489;28;20035;-80
2023/05/28 01:23:03;;;;;;;17.55;10.35;;;15.80;99.90;;;;;;5073950;28;20186;-80
2023/05/28 01:25:30;;;;;;;15.70;11.07;;;15.80;99.90;;;;;;5072642;28;20478;-81
2023/05/28 01:27:56;;;;;;;18.52;9.75;;;15.80;99.90;;;;;;5073460;28;20032;-79
2023/05/28 01:30:22;;;;;;;15.52;9.80;;;15.80;99.90;;;;;;5073589;28;20047;-79
2023/05/28 01:32:48;;;;;;;16.33;9.77;;;15.70;99.90;;;;;;5073976;28;20032;-79
2023/05/28 01:35:15;;;;;;;15.77;9.68;;;15.80;99.90;;;;;;5072569;28;20028;-79
2023/05/28 01:37:46;;;;;;;15.93;9.10;;;15.80;99.90;;;;;;5073974;28;20158;-79
2023/05/28 01:40:14;;;;;;;19.67;9.23;;;15.80;99.90;;;;;;5073944;28;20051;-79
2023/05/28 01:42:40;;;;;;;18.10;9.25;;;15.80;99.90;;;;;;5071081;28;20021;-79
2023/05/28 01:45:07;;;;;;;16.13;8.75;;;15.90;99.90;;;;;;5072085;28;20037;-79
2023/05/28 01:47:34;;;;;;;13.60;8.57;;;15.80;99.90;;;;;;5072488;28;20029;-79
2023/05/28 01:50:00;;;;;;;12.93;9.27;;;15.80;99.90;;;;;;5070874;28;20119;-79
2023/05/28 01:52:26;;;;;;;18.02;9.35;;;15.80;99.90;;;;;;5073118;28;20258;-78
2023/05/28 01:54:52;;;;;;;15.20;9.52;;;15.80;99.90;;;;;;5066404;28;20056;-79
2023/05/28 01:57:17;;;;;;;17.77;10.18;;;15.80;99.90;;;;;;5073065;28;20040;-79
2023/05/28 01:59:43;;;;;;;13.43;9.20;;;15.80;99.90;;;;;;5073658;28;20407;-79
2023/05/28 02:02:10;;;;;;;14.65;9.45;;;15.90;99.90;;;;;;5071330;28;20112;-80
2023/05/28 02:04:35;;;;;;;14.18;9.50;;;15.80;99.90;;;;;;5071999;28;20048;-80
2023/05/28 02:07:01;;;;;;;12.88;9.48;;;15.90;99.90;;;;;;5073568;28;20150;-80
2023/05/28 02:09:27;;;;;;;15.13;9.75;;;15.90;99.90;;;;;;5071826;28;20074;-80
2023/05/28 02:11:52;;;;;;;17.92;9.07;;;15.90;99.90;;;;;;5073143;28;20441;-80
2023/05/28 02:14:18;;;;;;;16.45;9.05;;;15.90;99.90;;;;;;5071702;28;20478;-80
2023/05/28 02:16:52;;;;;;;13.73;8.70;;;15.90;99.90;;;;;;5072722;28;20364;-79
2023/05/28 02:19:18;;;;;;;16.70;9.23;;;15.90;99.90;;;;;;5073642;28;20032;-79
2023/05/28 02:21:45;;;;;;;16.65;9.48;;;15.80;99.90;;;;;;5073453;28;20435;-79
2023/05/28 02:24:11;;;;;;;16.77;9.70;;;15.80;99.90;;;;;;5072517;28;20028;-80
2023/05/28 02:26:37;;;;;;;13.93;9.23;;;15.80;99.90;;;;;;5073220;28;20032;-79
2023/05/28 02:29:03;;;;;;;14.38;8.88;;;15.80;99.90;;;;;;5072038;28;20390;-79
2023/05/28 02:31:29;;;;;;;19.23;9.23;;;15.80;99.90;;;;;;5071208;28;20081;-79
2023/05/28 02:33:55;;;;;;;14.05;8.98;;;15.80;99.90;;;;;;5072992;28;20027;-80
2023/05/28 02:36:20;;;;;;;15.75;9.25;;;15.80;99.90;;;;;;5071707;28;20449;-80
2023/05/28 02:38:46;;;;;;;11.85;8.98;;;15.80;99.90;;;;;;5071440;28;20036;-80
2023/05/28 02:41:12;;;;;;;17.40;9.00;;;15.90;99.90;;;;;;5071737;28;20380;-79
2023/05/28 02:43:38;;;;;;;22.00;9.60;;;15.90;99.90;;;;;;5072853;28;20474;-79
2023/05/28 02:46:04;;;;;;;14.15;8.50;;;15.90;99.90;;;;;;5072696;28;20028;-80
2023/05/28 02:48:30;;;;;;;15.50;9.27;;;15.90;99.90;;;;;;5071650;28;20037;-79
2023/05/28 02:50:56;;;;;;;15.63;9.15;;;15.90;99.90;;;;;;5071284;28;20031;-79
2023/05/28 02:53:23;;;;;;;14.77;9.10;;;15.80;99.90;;;;;;5072666;28;20025;-79
2023/05/28 02:55:49;;;;;;;12.93;8.57;;;15.80;99.90;;;;;;5071536;28;20413;-79
2023/05/28 02:58:15;;;;;;;17.85;9.50;;;15.80;99.90;;;;;;5069013;28;20076;-79
2023/05/28 03:00:42;;;;;;;16.63;9.23;;;15.80;99.90;;;;;;5072918;28;20031;-80
2023/05/28 03:03:08;;;;;;;20.00;9.95;;;15.80;99.90;;;;;;5071471;28;20029;-79
2023/05/28 03:05:35;;;;;;;13.50;9.43;;;15.80;99.90;;;;;;5072132;28;20093;-79
2023/05/28 03:08:01;;;;;;;15.65;9.20;;;15.90;99.90;;;;;;5071427;28;20029;-80
2023/05/28 03:10:27;;;;;;;12.85;9.43;;;15.90;99.90;;;;;;5072554;28;20475;-80
2023/05/28 03:12:53;;;;;;;16.77;9.75;;;15.80;99.90;;;;;;5072380;28;20054;-79
2023/05/28 03:15:18;;;;;;;16.98;10.05;;;15.90;99.90;;;;;;5073600;28;20057;-79
2023/05/28 03:17:44;;;;;;;14.20;9.65;;;15.90;99.90;;;;;;5076500;28;20040;-79
2023/05/28 03:20:11;;;;;;;12.70;8.90;;;15.80;99.90;;;;;;5076898;28;20021;-80
2023/05/28 03:22:37;;;;;;;15.85;9.55;;;15.90;99.90;;;;;;5076827;28;20112;-80
2023/05/28 03:25:05;;;;;;;14.60;9.85;;;15.90;99.90;;;;;;5076878;28;20037;-79
2023/05/28 03:27:31;;;;;;;20.25;10.00;;;15.90;99.90;;;;;;5075176;28;20055;-79
2023/05/28 03:29:57;;;;;;;17.33;11.00;;;15.80;99.90;;;;;;5075451;28;20539;-79
2023/05/28 03:32:23;;;;;;;14.80;9.63;;;15.90;99.90;;;;;;5076711;28;20020;-79
2023/05/28 03:34:49;;;;;;;23.17;10.50;;;15.90;99.90;;;;;;5076351;28;20028;-79
2023/05/28 03:37:15;;;;;;;14.98;9.18;;;15.90;99.90;;;;;;5075152;28;20032;-79
2023/05/28 03:39:41;;;;;;;15.10;9.38;;;16.00;99.90;;;;;;5076826;28;20028;-79
2023/05/28 03:42:07;;;;;;;17.48;9.07;;;16.00;99.90;;;;;;5075813;28;20378;-79
2023/05/28 03:44:34;;;;;;;11.50;8.38;;;15.90;99.90;;;;;;5074369;28;20111;-79
2023/05/28 03:47:00;;;;;;;17.73;9.65;;;15.90;99.90;;;;;;5075950;28;20051;-80
2023/05/28 03:49:26;;;;;;;17.80;10.23;;;15.90;99.90;;;;;;5075826;28;20107;-79
2023/05/28 03:51:52;;;;;;;14.65;9.35;;;15.90;99.90;;;;;;5075580;28;20466;-80
2023/05/28 03:54:18;;;;;;;17.85;9.68;;;16.00;99.90;;;;;;5074020;28;20116;-79
2023/05/28 03:56:44;;;;;;;13.82;10.15;;;15.90;99.90;;;;;;5075535;28;20032;-79
2023/05/28 03:59:10;;;;;;;18.45;9.60;;;15.90;99.90;;;;;;5074900;28;20035;-79
2023/05/28 04:01:36;;;;;;;12.75;8.73;;;16.00;99.90;;;;;;5075691;28;20021;-79
2023/05/28 04:04:02;;;;;;;13.65;8.80;;;15.90;99.90;;;;;;5075521;28;20028;-79
2023/05/28 04:06:29;;;;;;;17.83;8.77;;;15.90;99.90;;;;;;5086240;28;20040;-79
2023/05/28 04:08:55;;;;;;;12.05;8.25;;;15.90;99.90;;;;;;5074158;28;20032;-80
2023/05/28 04:11:24;;;;;;;17.17;9.80;;;16.00;99.90;;;;;;5075122;28;20428;-79
2023/05/28 04:13:50;;;;;;;15.15;9.60;;;16.00;99.90;;;;;;5074671;28;20463;-79
2023/05/28 04:16:16;;;;;;;16.13;9.35;;;16.00;99.90;;;;;;5074643;28;20028;-80
2023/05/28 04:18:42;;;;;;;22.65;9.50;;;15.90;99.90;;;;;;5074054;28;20025;-80
2023/05/28 04:21:08;;;;;;;16.45;9.77;;;16.00;99.90;;;;;;5075371;28;20064;-80
2023/05/28 04:23:34;;;;;;;16.60;10.60;;;15.90;99.90;;;;;;5073585;28;20111;-80
2023/05/28 04:26:00;;;;;;;17.58;10.13;;;15.90;99.90;;;;;;5074641;28;20036;-80
2023/05/28 04:28:27;;;;;;;16.17;10.13;;;15.90;99.90;;;;;;5074907;28;20020;-81
2023/05/28 04:30:55;;;;;;;17.58;10.55;;;15.90;99.90;;;;;;5073475;28;20078;-79
2023/05/28 04:33:21;;;;;;;17.75;10.70;;;15.90;99.90;;;;;;5074568;28;20032;-79
2023/05/28 04:35:47;;;;;;;16.27;10.20;;;16.00;99.90;;;;;;5073675;28;20089;-80
2023/05/28 04:38:13;;;;;;;14.45;9.50;;;16.00;99.90;;;;;;5073302;28;20028;-79
2023/05/28 04:40:39;;;;;;;13.65;10.43;;;16.00;99.90;;;;;;5075402;28;20451;-79
2023/05/28 04:43:06;;;;;;;17.15;10.27;;;16.00;99.90;;;;;;5072987;28;20028;-80
2023/05/28 04:45:32;;;;;;;12.70;9.65;;;16.00;99.90;;;;;;5073120;28;20111;-80
2023/05/28 04:47:58;;;;;;;25.27;10.50;;;16.00;99.90;;;;;;5073749;28;20048;-80
2023/05/28 04:50:24;;;;;;;17.00;10.07;;;16.10;99.90;;;;;;5074648;28;20036;-80
2023/05/28 04:52:50;;;;;;;16.52;10.25;;;16.10;99.90;;;;;;5074601;28;20043;-80
2023/05/28 04:55:16;;;;;;;17.58;10.07;;;16.20;99.90;;;;;;5071222;28;20355;-79
2023/05/28 04:57:42;;;;;;;18.52;10.48;;;16.10;99.90;;;;;;5072941;28;20044;-80
2023/05/28 05:00:12;;;;;;;16.88;9.90;;;16.30;99.90;;;;;;5073429;28;20036;-82
2023/05/28 05:02:40;;;;;;;19.52;10.02;;;16.30;99.90;;;;;;5074501;28;20032;-81
2023/05/28 05:05:07;;;;;;;14.68;9.90;;;16.30;99.90;;;;;;5073850;28;20406;-81
2023/05/28 05:07:35;;;;;;;16.58;10.40;;;16.30;99.90;;;;;;5074290;28;20025;-81
2023/05/28 05:10:01;;;;;;;16.55;10.32;;;16.30;99.90;;;;;;5073088;28;20086;-81
2023/05/28 05:12:27;;;;;;;21.33;10.23;;;16.40;99.90;;;;;;5072706;28;20028;-81
2023/05/28 05:14:52;;;;;;;18.33;10.07;;;16.40;99.90;;;;;;5072854;28;20052;-81
2023/05/28 05:17:18;;;;;;;21.83;10.10;;;16.50;99.90;;;;;;5072849;28;20032;-81
2023/05/28 05:19:44;;;;;;;21.88;9.77;;;16.50;99.90;;;;;;5072662;28;20116;-81
2023/05/28 05:22:10;;;;;;;20.70;9.73;;;16.60;99.90;;;;;;5073207;28;20028;-81
2023/05/28 05:24:35;;;;;;;14.00;9.02;;;16.60;99.90;;;;;;5073070;28;20107;-81
2023/05/28 05:27:01;;;;;;;15.95;9.63;;;16.60;99.90;;;;;;5073159;28;20082;-81
2023/05/28 05:29:27;;;;;;;19.95;10.00;;;16.50;99.90;;;;;;5072761;28;20070;-83
2023/05/28 05:31:53;;;;;;;16.48;9.52;;;16.50;99.90;;;;;;5072426;28;20033;-81
2023/05/28 05:34:19;;;;;;;17.35;9.68;;;16.60;99.90;;;;;;5072411;28;20036;-82
2023/05/28 05:36:44;;;;;;;19.23;9.38;;;16.60;99.90;;;;;;5071509;28;20463;-83
2023/05/28 05:39:10;;;;;;;19.38;9.93;;;16.60;99.90;;;;;;5072252;28;20032;-83
2023/05/28 05:41:36;;;;;;;16.25;9.43;;;16.70;99.90;;;;;;5073720;28;20028;-82
2023/05/28 05:44:02;;;;;;;17.17;10.10;;;16.70;99.90;;;;;;5073868;28;20493;-82
2023/05/28 05:46:28;;;;;;;13.55;9.07;;;16.70;99.90;;;;;;5072291;28;20430;-82
2023/05/28 05:48:53;;;;;;;20.80;8.90;;;16.80;99.90;;;;;;5072229;28;20485;-83
2023/05/28 05:51:19;;;;;;;13.43;9.20;;;16.80;99.90;;;;;;5072062;28;20024;-82
2023/05/28 05:53:45;;;;;;;16.83;9.75;;;16.90;99.90;;;;;;5071756;28;20103;-81
2023/05/28 05:56:11;;;;;;;23.38;10.00;;;17.00;99.90;;;;;;5068274;28;20089;-81
2023/05/28 05:58:37;;;;;;;16.63;9.50;;;17.00;99.90;;;;;;5071898;28;20028;-82
2023/05/28 06:01:03;;;;;;;13.18;9.10;;;17.10;99.90;;;;;;5071075;28;20126;-82
2023/05/28 06:03:30;;;;;;;17.27;9.95;;;17.10;99.90;;;;;;5072542;28;20401;-81
2023/05/28 06:05:56;;;;;;;18.48;8.98;;;17.20;99.90;;;;;;5071784;28;20036;-82
2023/05/28 06:08:22;;;;;;;14.30;8.73;;;17.30;99.90;;;;;;5073158;28;20032;-83
2023/05/28 06:10:48;;;;;;;13.90;8.45;;;17.30;99.90;;;;;;5073351;28;20020;-81
2023/05/28 06:13:14;;;;;;;16.63;8.93;;;17.30;99.90;;;;;;5071446;28;20025;-82
2023/05/28 06:15:41;;;;;;;25.67;10.77;;;17.40;99.90;;;;;;5071190;28;20147;-83
2023/05/28 06:18:07;;;;;;;14.00;8.13;;;17.40;99.90;;;;;;5071911;28;20489;-82
2023/05/28 06:20:33;;;;;;;15.05;8.48;;;17.40;99.90;;;;;;5070976;28;20091;-82
2023/05/28 06:22:59;;;;;;;14.15;8.90;;;17.40;99.90;;;;;;5072869;28;20471;-82
2023/05/28 06:25:25;;;;;;;16.70;8.38;;;;;;;;;;5071863;28;20040;-81
2023/05/28 06:27:51;;;;;;;13.35;8.10;;;17.60;99.90;;;;;;5072663;28;20374;-82
2023/05/28 06:30:17;;;;;;;15.43;8.63;;;17.60;99.90;;;;;;5073583;28;20036;-83
2023/05/28 06:32:43;;;;;;;19.48;8.88;;;17.70;99.90;;;;;;5072137;28;20029;-83
2023/05/28 06:35:09;;;;;;;14.63;8.93;;;17.70;99.90;;;;;;5072098;28;20021;-83
2023/05/28 06:37:34;;;;;;;20.45;10.10;;;17.70;99.90;;;;;;5069905;28;20055;-82
2023/05/28 06:40:00;;;;;;;18.17;10.35;;;17.70;99.90;;;;;;5072631;28;20039;-82
2023/05/28 06:42:26;;;;;;;17.10;9.60;;;17.80;99.90;;;;;;5071532;28;20024;-82
2023/05/28 06:44:52;;;;;;;14.63;9.50;;;17.80;99.90;;;;;;5071780;28;20402;-81
2023/05/28 06:47:18;;;;;;;19.92;9.30;;;17.80;99.90;;;;;;5070888;28;20078;-81
2023/05/28 06:49:43;;;;;;;19.25;7.60;;;17.90;99.90;;;;;;5076901;28;20036;-83
2023/05/28 06:52:09;;;;;;;14.82;7.40;;;17.90;99.90;;;;;;5077250;28;20085;-84
2023/05/28 06:54:35;;;;;;;26.25;8.85;;;17.90;99.90;;;;;;5075186;28;20450;-84
2023/05/28 06:57:01;;;;;;;14.80;7.90;;;18.00;99.90;;;;;;5076010;28;20044;-84
2023/05/28 06:59:26;;;;;;;18.52;7.28;;;18.00;99.90;;;;;;5076054;28;20029;-83
2023/05/28 07:01:52;;;;;;;14.48;7.30;;;18.10;99.90;;;;;;5075976;28;20032;-84
2023/05/28 07:04:18;;;;;;;16.58;7.28;;;18.20;99.90;;;;;;5075485;28;20024;-84
2023/05/28 07:06:44;;;;;;;18.52;6.80;;;18.30;99.90;;;;;;5075934;28;20032;-83
2023/05/28 07:09:10;;;;;;;12.43;6.72;;;18.40;99.90;;;;;;5075896;28;20033;-82
2023/05/28 07:11:36;;;;;;;13.50;7.10;;;18.30;99.90;;;;;;5075762;28;20041;-83
2023/05/28 07:14:02;;;;;;;17.13;7.20;;;18.30;99.90;;;;;;5075510;28;20059;-82
2023/05/28 07:16:28;;;;;;;12.07;7.75;;;18.40;99.90;;;;;;5075612;28;20142;-83
2023/05/28 07:18:53;;;;;;;14.23;7.03;;;18.50;99.90;;;;;;5076871;28;20028;-83
2023/05/28 07:21:20;;;;;;;14.77;7.15;;;18.60;99.90;;;;;;5075776;28;20024;-84
2023/05/28 07:23:45;;;;;;;20.85;7.90;;;18.50;99.90;;;;;;5076647;28;20385;-83
2023/05/28 07:26:11;;;;;;;14.55;7.22;;;18.70;99.90;;;;;;5076189;28;20025;-84
2023/05/28 07:28:37;;;;;;;14.55;7.97;;;18.80;99.90;;;;;;5075485;28;20123;-84
2023/05/28 07:31:03;;;;;;;16.67;7.10;;;18.80;99.90;;;;;;5074907;28;20036;-84
2023/05/28 07:33:28;;;;;;;11.85;7.30;;;18.80;99.90;;;;;;5075379;28;20028;-85
2023/05/28 07:35:54;;;;;;;12.93;8.05;;;18.80;99.90;;;;;;5075289;28;20040;-85
2023/05/28 07:38:20;;;;;;;18.15;7.72;;;18.90;99.90;;;;;;5074973;28;20021;-84
2023/05/28 07:40:46;;;;;;;12.52;7.45;;;19.00;99.90;;;;;;5076957;28;20031;-84
2023/05/28 07:43:11;;;;;;;11.65;7.50;;;18.90;99.90;;;;;;5075150;28;20068;-81
2023/05/28 07:45:37;;;;;;;12.18;7.05;;;19.10;99.90;;;;;;5076002;28;20044;-82
2023/05/28 07:48:03;;;;;;;14.23;6.90;;;19.20;99.90;;;;;;5075948;28;20039;-81
2023/05/28 07:50:29;;;;;;;14.18;7.43;;;19.20;99.90;;;;;;5074389;28;20031;-81
2023/05/28 07:52:55;;;;;;;20.70;7.70;;;19.20;99.90;;;;;;5074727;28;20096;-82
2023/05/28 07:55:21;;;;;;;16.13;7.85;;;19.20;99.90;;;;;;5074954;28;20055;-81
2023/05/28 07:57:47;;;;;;;15.65;8.20;;;19.20;99.90;;;;;;5074881;28;20106;-82
2023/05/28 08:00:15;;;;;;;13.45;8.48;;;19.30;99.90;;;;;;5075465;28;20042;-80
2023/05/28 08:02:43;;;;;;;11.15;8.18;;;19.30;99.90;;;;;;5076462;28;20496;-81
2023/05/28 08:05:09;;;;;;;13.90;8.13;;;19.40;99.90;;;;;;5074988;28;20032;-82
2023/05/28 08:07:34;;;;;;;13.95;8.05;;;19.40;99.90;;;;;;5074424;28;20032;-82
2023/05/28 08:10:01;;;;;;;14.88;7.78;;;19.40;99.90;;;;;;5075782;28;20029;-80
2023/05/28 08:12:26;;;;;;;17.10;7.30;;;19.50;99.90;;;;;;5074500;28;20483;-81
2023/05/28 08:14:53;;;;;;;16.15;7.53;;;;;;;;;;5075183;28;20053;-81
2023/05/28 08:17:21;;;;;;;16.70;7.40;;;19.60;99.90;;;;;;5075499;28;20088;-81
2023/05/28 08:19:47;;;;;;;15.55;7.10;;;19.80;99.90;;;;;;5074155;28;20471;-80
2023/05/28 08:22:13;;;;;;;14.20;6.80;;;19.90;99.90;;;;;;5073672;28;20035;-81
2023/05/28 08:24:39;;;;;;;12.50;6.55;;;;;;;;;;5075318;28;20099;-82
2023/05/28 08:27:06;;;;;;;12.43;6.60;;;;;;;;;;5073615;28;20067;-80
2023/05/28 08:29:32;;;;;;;11.90;6.28;;;;;;;;;;5074206;28;20351;-81
2023/05/28 08:31:59;;;;;;;13.18;6.57;;;;;;;;;;5074519;28;20024;-81
2023/05/28 08:34:26;;;;;;;14.60;6.53;;;;;;;;;;5073756;28;20462;-81
2023/05/28 08:36:52;;;;;;;11.75;6.38;;;;;;;;;;5073991;28;20028;-82
2023/05/28 08:39:19;;;;;;;16.50;7.20;;;;;;;;;;5072735;28;20513;-80
2023/05/28 08:41:45;;;;;;;14.77;6.45;;;;;;;;;;5073724;28;20031;-81
2023/05/28 08:44:12;;;;;;;17.77;6.80;;;;;;;;;;5074918;28;20548;-79
2023/05/28 08:46:38;;;;;;;10.55;6.10;;;;;;;;;;5074043;28;20066;-80
2023/05/28 08:49:04;;;;;;;15.18;7.15;;;;;;;;;;5073686;28;20020;-82
2023/05/28 08:51:36;;;;;;;13.27;7.20;;;;;;;;;;5073903;28;20367;-80
2023/05/28 08:54:02;;;;;;;;;;;;;;;;;;5074329;28;20020;-82
2023/05/28 08:56:29;;;;;;;17.92;6.88;;;;;;;;;;5074010;28;19912;-82
2023/05/28 08:58:55;;;;;;;12.90;6.45;;;;;;;;;;5064120;28;20035;-80
2023/05/28 09:01:21;;;;;;;12.63;6.70;;;;;;;;;;5075030;28;20027;-82
2023/05/28 09:03:48;;;;;;;14.80;6.97;;;;;;;;;;5074685;28;20032;-83
2023/05/28 09:06:14;;;;;;;16.10;7.25;;;;;;;;;;5071750;28;20542;-82
2023/05/28 09:08:40;;;;;;;14.18;7.30;;;;;;;;;;5073250;28;20112;-81
2023/05/28 09:11:13;;;;;;;12.73;6.70;;;;;;;;;;5074545;28;20012;-83
2023/05/28 09:13:43;;;;;;;15.18;6.35;;;;;;;;;;5073448;28;20028;-82
2023/05/28 09:16:09;;;;;;;10.45;6.78;;;;;;;;;;5072944;28;20267;-82
2023/05/28 09:18:36;;;;;;;11.18;6.40;;;;;;;;;;5074812;28;20024;-82
2023/05/28 09:21:08;;;;;;;16.17;6.55;;;;;;;;;;5074466;28;20103;-83
2023/05/28 09:23:34;;;;;;;;;;;;;;;;;;5073418;28;20021;-84
2023/05/28 09:26:01;;;;;;;13.88;6.57;;;;;;;;;;5074325;28;19904;-82
2023/05/28 09:28:30;;;;;;;15.70;7.50;;;;;;;;;;5073247;28;20029;-84
2023/05/28 09:31:03;;;;;;;15.65;7.28;;;;;;;;;;5072913;28;20021;-84
2023/05/28 09:33:29;;;;;;;12.10;6.65;;;;;;;;;;5072562;28;20028;-82
2023/05/28 09:35:59;;;;;;;16.63;6.28;;;;;;;;;;5072732;28;20039;-81
2023/05/28 09:38:26;;;;;;;15.55;7.10;;;;;;;;;;5073751;28;20095;-83
2023/05/28 09:40:57;;;;;;;12.88;6.05;;;;;;;;;;5073016;28;20017;-82
2023/05/28 09:43:23;;;;;;;;;;;;;;;;;;5074584;28;20025;-83
2023/05/28 09:45:50;;;;;;;10.07;6.18;;;;;;;;;;5072216;28;20385;-82
2023/05/28 09:48:17;;;;;;;11.82;6.45;;;;;;;;;;5073459;28;20025;-81
2023/05/28 09:50:43;;;;;;;13.68;7.05;;;;;;;;;;5068966;28;20046;-82
2023/05/28 09:53:09;;;;;;;8.85;6.03;;;;;;;;;;5073534;28;20069;-82
2023/05/28 09:55:36;;;;;;;10.52;5.82;;;;;;;;;;5072643;28;20569;-82
2023/05/28 09:58:04;;;;;;;14.45;6.28;;;;;;;;;;5073702;28;20031;-81
2023/05/28 10:00:42;;;;;;;11.02;7.05;;;;;;;;;;5072759;28;20028;-82
2023/05/28 10:03:11;;;;;;;16.70;7.13;;;;;;;;;;5072797;28;20029;-84
2023/05/28 10:05:38;;;;;;;9.00;5.85;;;;;;;;;;5073670;28;20020;-82
2023/05/28 10:08:04;;;;;;;14.25;6.93;;;;;;;;;;5072090;28;20031;-84
2023/05/28 10:10:32;;;;;;;12.32;6.80;;;;;;;;;;5072679;28;20048;-83
2023/05/28 10:12:59;;;;;;;10.35;6.72;;;;;;;;;;5072590;28;20097;-81
2023/05/28 10:15:26;;;;;;;17.17;6.90;;;;;;;;;;5073990;28;20105;-82
2023/05/28 10:17:52;;;;;;;12.13;6.78;;;;;;;;;;5072754;28;20066;-82
2023/05/28 10:20:18;;;;;;;15.48;6.70;;;;;;;;;;5072291;28;20119;-80
2023/05/28 10:22:45;;;;;;;13.45;6.93;;;;;;;;;;5072204;28;20392;-84
2023/05/28 10:25:11;;;;;;;11.57;6.43;;;;;;;;;;5072509;28;20034;-82
2023/05/28 10:27:44;;;;;;;16.50;7.10;;;;;;;;;;5072103;28;20028;-82
2023/05/28 10:30:12;;;;;;;10.85;6.70;;;;;;;;;;5072135;28;20032;-85
2023/05/28 10:32:42;;;;;;;10.90;7.20;;;;;;;;;;5071922;28;20501;-82
2023/05/28 10:35:12;;;;;;;16.25;7.55;;;;;;;;;;5071525;28;20119;-83
2023/05/28 10:37:38;;;;;;;13.07;7.10;;;;;;;;;;5065253;28;20078;-81
2023/05/28 10:40:07;;;;;;;13.80;6.80;;;;;;;;;;5071042;28;20039;-80
2023/05/28 10:42:41;;;;;;;10.45;6.30;;;;;;;;;;5073062;28;20025;-84
2023/05/28 10:45:09;;;;;;;9.52;6.20;;;;;;;;;;5072067;28;20443;-81
2023/05/28 10:47:51;;;;;;;10.77;6.70;;;;;;;;;;5070906;28;20107;-82
2023/05/28 10:50:17;;;;;;;15.55;6.20;;;;;;;;;;5072971;28;20035;-83
2023/05/28 10:52:44;;;;;;;11.25;7.03;;;;;;;;;;5071747;28;20111;-83
2023/05/28 10:55:12;;;;;;;10.98;6.97;;;;;;;;;;5072863;28;20029;-81
2023/05/28 10:57:48;;;;;;;15.52;6.75;;;;;;;;;;5072000;28;20043;-83
2023/05/28 11:00:24;;;;;;;10.93;6.90;;;;;;;;;;5073395;28;20025;-84
2023/05/28 11:02:53;;;;;;;14.43;7.85;;;;;;;;;;5071628;28;20475;-84
2023/05/28 11:05:26;;;;;;;15.43;7.47;;;;;;;;;;5071568;28;20119;-84
2023/05/28 11:07:53;;;;;;;13.45;7.55;;;;;;;;;;5061714;28;20028;-82
2023/05/28 11:10:19;;;;;;;11.15;6.85;;;;;;;;;;5072989;28;20440;-82
2023/05/28 11:12:46;;;;;;;11.20;7.88;;;;;;;;;;5071245;28;20444;-85
2023/05/28 11:15:13;;;;;;;15.95;7.85;;;;;;;;;;5069308;28;20044;-84
2023/05/28 11:17:46;;;;;;;14.90;7.28;;;;;;;;;;5070582;28;20046;-82
2023/05/28 11:20:28;;;;;;;13.85;7.78;;;;;;;;;;5072071;28;20421;-83
2023/05/28 11:22:55;;;;;;;17.08;7.78;;;;;;;;;;5070928;28;20543;-85
2023/05/28 11:25:22;;;;;;;14.73;7.60;;;;;;;;;;5071587;28;20031;-81
2023/05/28 11:27:50;;;;;;;13.20;7.78;;;;;;;;;;5070469;28;20039;-83
2023/05/28 11:30:17;;;;;;;11.80;8.40;;;;;;;;;;5070078;28;20025;-86
2023/05/28 11:32:44;;;;;;;12.20;7.82;;;;;;;;;;5070659;28;20028;-82
2023/05/28 11:35:12;;;;;;;13.65;7.72;;;;;;;;;;5071393;28;20378;-82
2023/05/28 11:37:39;;;;;;;10.18;7.25;;;;;;;;;;5073902;28;20024;-85
2023/05/28 11:40:09;;;;;;;15.60;8.07;;;;;;;;;;5073510;28;20056;-82
2023/05/28 11:42:36;;;;;;;11.50;7.20;;;;;;;;;;5074219;28;20023;-83
2023/05/28 11:45:02;;;;;;;14.77;7.78;;;;;;;;;;5073440;28;20020;-82
2023/05/28 11:47:32;;;;;;;15.75;7.70;;;;;;;;;;5075414;28;20032;-84
2023/05/28 11:49:58;;;;;;;14.40;7.72;;;;;;;;;;5056350;28;20372;-85
2023/05/28 11:52:25;;;;;;;16.20;8.20;;;;;;;;;;5073513;28;20024;-85
2023/05/28 11:54:56;;;;;;;12.35;7.53;;;;;;;;;;5075291;28;20082;-82
2023/05/28 11:57:25;;;;;;;15.73;8.15;;;;;;;;;;5073022;28;20055;-82
2023/05/28 12:00:00;;;;;;;11.55;8.65;;;;;;;;;;5074888;28;20386;-82
2023/05/28 12:02:27;;;;;;;12.18;7.53;;;;;;;;;;5074914;28;20074;-81
2023/05/28 12:04:54;;;;;;;14.98;7.35;;;;;;;;;;5074608;28;20502;-82
2023/05/28 12:07:20;;;;;;;15.30;8.60;;;;;;;;;;5074835;28;20034;-83
2023/05/28 12:09:46;;;;;;;15.02;8.20;;;;;;;;;;5075181;28;20123;-82
2023/05/28 12:12:13;;;;;;;14.20;7.78;;;;;;;;;;5074481;28;20016;-83
2023/05/28 12:14:39;;;;;;;11.70;7.68;;;;;;;;;;5074472;28;20129;-83
2023/05/28 12:17:08;;;;;;;13.00;8.48;;;;;;;;;;5074566;28;20035;-83
2023/05/28 12:19:35;;;;;;;10.40;7.22;;;;;;;;;;5074335;28;20118;-84
2023/05/28 12:22:02;;;;;;;12.98;7.90;;;;;;;;;;5074794;28;20025;-82
2023/05/28 12:24:29;;;;;;;14.55;8.65;;;;;;;;;;5075606;28;20379;-82
2023/05/28 12:26:55;;;;;;;10.95;8.07;;;;;;;;;;5074191;28;20024;-83
2023/05/28 12:29:21;;;;;;;11.27;8.15;;;;;;;;;;5075821;28;20017;-83
2023/05/28 12:31:47;;;;;;;13.52;7.80;;;;;;;;;;5074581;28;20024;-83
2023/05/28 12:34:13;;;;;;;12.25;7.78;;;;;;;;;;5074094;28;20028;-84
2023/05/28 12:36:40;;;;;;;13.18;6.97;;;;;;;;;;5074112;28;20032;-83
2023/05/28 12:39:06;;;;;;;13.18;7.88;;;;;;;;;;5075235;28;20425;-82
2023/05/28 12:41:32;;;;;;;14.02;7.75;;;;;;;;;;5074231;28;20051;-83
2023/05/28 12:43:59;;;;;;;17.90;7.78;;;;;;;;;;5073889;28;20025;-83
2023/05/28 12:46:25;;;;;;;12.52;8.20;;;;;;;;;;5073097;28;20031;-82
2023/05/28 12:48:51;;;;;;;14.30;8.13;;;;;;;;;;5074131;28;20556;-82
2023/05/28 12:51:17;;;;;;;17.00;7.55;;;;;;;;;;5075259;28;20467;-83
2023/05/28 12:53:43;;;;;;;12.88;7.57;;;;;;;;;;5073647;28;20040;-84
2023/05/28 12:56:10;;;;;;;11.43;7.40;;;;;;;;;;5073858;28;20032;-83
2023/05/28 12:58:36;;;;;;;14.68;8.30;;;;;;;;;;5074026;28;20356;-84
2023/05/28 13:01:02;;;;;;;11.30;7.90;;;;;;;;;;5073560;28;20021;-82
2023/05/28 13:03:28;;;;;;;9.82;7.32;;;;;;;;;;5075044;28;20078;-81
2023/05/28 13:05:54;;;;;;;15.27;7.78;;;;;;;;;;5073691;28;20378;-83
2023/05/28 13:08:20;;;;;;;15.68;7.95;;;;;;;;;;5074838;28;20096;-82
2023/05/28 13:10:46;;;;;;;14.68;7.72;;;;;;;;;;5073592;28;20058;-83
2023/05/28 13:13:13;;;;;;;12.40;7.68;;;;;;;;;;5074863;28;20024;-83